< < Back
Terminal Aerodrome Forecast


Current Version              Previous Versions:   1  2  3  4  5  6  7  8  9  

Terminal Aerodrome Forecast

093
FTUS42 KGSP 302218 AAB
TAFGSP
TAF AMD
KGSP 302218Z 3022/3118 12004KT P6SM -SHRA SCT050 OVC080
      TEMPO 3022/3024 VRB12KT 5SM TSRA BR BKN050CB
     FM310200 04003KT P6SM VCSH BKN070
     FM310400 03003KT 5SM BR VCSH BKN018
     FM310900 05003KT 3SM BR BKN004
     FM311300 06004KT 5SM BR BKN007
     FM311500 05004KT P6SM BKN025=



Latest METAR

654
SAUS70 KWBC 310000 RRA
MTRGSP
METAR KGSP 302353Z 11006KT 4SM -RA BR BKN110 18/18 A3012 RMK AO2 SLP193
P0009 60014 T01830178 10278 20183 58001


USA.gov is the U.S. government's official web portal to all federal, state and local government web resources and services.